Terminal Aerodrome Forecast
Issued by NWS

Home | Current Version | Previous Version | Text Only | Print | Product List | Glossary On
Versions: 1 2 3 4 5 6 7 8 9 10 11 12 13 14 15
000
FTUS46 KPDT 201720
TAFALW
TAF
KALW 201720Z 2018/2118 23015G23KT P6SM SCT050 BKN070
     FM201900 23018G30KT P6SM BKN070
     FM210300 25014G23KT P6SM SCT070 BKN100
     FM210800 18011KT P6SM SCT100 BKN200=

USA.gov is the U.S. government's official web portal to all federal, state and local government web resources and services.